Time,TemperatureF,DewpointF,PressureIn,WindDirection,WindDirectionDegrees,WindSpeedMPH,WindSpeedGustMPH,Humidity,HourlyPrecipIn,Conditions,Clouds,dailyrainin,SoftwareType,DateUTC
2013-04-17 00:04:00,41.4,34.0,30.32,SSW,203,0.0,0.2,75,0.00,,,0.00,WUHU216HW,2013-04-17 07:04:00,
2013-04-17 00:09:00,41.0,33.7,30.32,SSW,203,0.0,0.0,75,0.00,,,0.00,WUHU216HW,2013-04-17 07:09:00,
2013-04-17 00:14:00,40.9,33.5,30.32,SSW,203,0.0,0.0,75,0.00,,,0.00,WUHU216HW,2013-04-17 07:14:00,
2013-04-17 00:20:00,40.7,33.7,30.32,ESE,113,0.0,1.1,76,0.00,,,0.00,WUHU216HW,2013-04-17 07:20:00,
2013-04-17 00:25:00,40.3,33.3,30.32,SSE,158,0.0,1.1,76,0.00,,,0.00,WUHU216HW,2013-04-17 07:25:00,
2013-04-17 00:30:00,40.1,33.5,30.32,East,90,0.0,1.3,77,0.00,,,0.00,WUHU216HW,2013-04-17 07:30:00,
2013-04-17 00:35:00,40.0,33.3,30.32,ESE,113,0.2,1.3,77,0.00,,,0.00,WUHU216HW,2013-04-17 07:35:00,
2013-04-17 00:40:00,39.8,33.1,30.32,East,90,0.0,0.4,77,0.00,,,0.00,WUHU216HW,2013-04-17 07:40:00,
2013-04-17 00:45:00,39.6,32.9,30.32,West,270,0.2,0.4,77,0.00,,,0.00,WUHU216HW,2013-04-17 07:45:00,
2013-04-17 00:50:00,39.4,32.8,30.32,West,270,0.0,0.4,77,0.00,,,0.00,WUHU216HW,2013-04-17 07:50:00,
2013-04-17 00:55:00,39.2,32.9,30.32,West,270,0.0,0.4,78,0.00,,,0.00,WUHU216HW,2013-04-17 07:55:00,
2013-04-17 01:00:00,39.2,32.9,30.33,West,270,0.0,0.0,78,0.00,,,0.00,WUHU216HW,2013-04-17 08:00:00,
2013-04-17 01:05:00,39.1,32.8,30.33,West,270,0.0,0.0,78,0.00,,,0.00,WUHU216HW,2013-04-17 08:05:00,
2013-04-17 01:10:00,38.9,32.9,30.33,SSW,203,0.4,0.7,79,0.00,,,0.00,WUHU216HW,2013-04-17 08:10:00,
2013-04-17 01:15:00,38.9,32.9,30.33,South,180,1.1,1.3,79,0.00,,,0.00,WUHU216HW,2013-04-17 08:15:00,
2013-04-17 01:21:00,38.7,32.8,30.33,SSE,158,0.7,1.8,79,0.00,,,0.00,WUHU216HW,2013-04-17 08:21:00,
2013-04-17 01:26:00,38.7,32.8,30.33,South,180,0.0,1.8,79,0.00,,,0.00,WUHU216HW,2013-04-17 08:26:00,
2013-04-17 01:31:00,38.5,32.6,30.33,SE,135,0.0,0.7,79,0.00,,,0.00,WUHU216HW,2013-04-17 08:31:00,
2013-04-17 01:36:00,38.3,32.1,30.33,SE,135,0.0,0.0,78,0.00,,,0.00,WUHU216HW,2013-04-17 08:36:00,
2013-04-17 01:41:00,38.2,32.0,30.33,SW,225,0.0,0.4,78,0.00,,,0.00,WUHU216HW,2013-04-17 08:41:00,
2013-04-17 01:46:00,38.0,32.0,30.33,SSW,203,0.0,0.4,79,0.00,,,0.00,WUHU216HW,2013-04-17 08:46:00,
2013-04-17 01:52:00,37.8,31.9,30.33,SSW,203,0.0,0.0,79,0.00,,,0.00,WUHU216HW,2013-04-17 08:52:00,
2013-04-17 01:57:00,37.6,31.7,30.33,ENE,68,0.2,0.2,79,0.00,,,0.00,WUHU216HW,2013-04-17 08:57:00,
2013-04-17 02:02:00,37.6,31.7,30.33,ENE,68,0.0,0.2,79,0.00,,,0.00,WUHU216HW,2013-04-17 09:02:00,
2013-04-17 02:07:00,37.4,31.9,30.33,ENE,68,0.0,0.2,80,0.00,,,0.00,WUHU216HW,2013-04-17 09:07:00,
2013-04-17 02:12:00,37.3,31.7,30.33,North,0,0.0,0.2,80,0.00,,,0.00,WUHU216HW,2013-04-17 09:12:00,
2013-04-17 02:17:00,37.3,31.7,30.33,North,0,0.0,0.4,80,0.00,,,0.00,WUHU216HW,2013-04-17 09:17:00,
2013-04-17 02:22:00,37.1,31.5,30.34,North,0,0.0,0.4,80,0.00,,,0.00,WUHU216HW,2013-04-17 09:22:00,
2013-04-17 02:27:00,37.1,31.5,30.34,WNW,293,0.0,0.4,80,0.00,,,0.00,WUHU216HW,2013-04-17 09:27:00,
2013-04-17 02:32:00,36.9,31.3,30.34,WNW,293,0.0,0.4,80,0.00,,,0.00,WUHU216HW,2013-04-17 09:32:00,
2013-04-17 02:37:00,36.9,31.6,30.34,WNW,293,0.0,0.4,81,0.00,,,0.00,WUHU216HW,2013-04-17 09:37:00,
2013-04-17 02:42:00,36.9,31.6,30.34,WNW,293,0.0,0.4,81,0.00,,,0.00,WUHU216HW,2013-04-17 09:42:00,
2013-04-17 02:47:00,36.7,31.4,30.33,WNW,293,0.0,0.4,81,0.00,,,0.00,WUHU216HW,2013-04-17 09:47:00,
2013-04-17 02:52:00,36.7,31.4,30.33,NNW,338,0.0,0.2,81,0.00,,,0.00,WUHU216HW,2013-04-17 09:52:00,
2013-04-17 02:57:00,36.7,31.4,30.33,NNW,338,0.0,0.2,81,0.00,,,0.00,WUHU216HW,2013-04-17 09:57:00,
2013-04-17 03:03:00,36.7,31.7,30.33,North,0,0.0,0.0,82,0.00,,,0.00,WUHU216HW,2013-04-17 10:03:00,
2013-04-17 03:08:00,36.7,31.7,30.33,North,0,0.0,0.0,82,0.00,,,0.00,WUHU216HW,2013-04-17 10:08:00,
2013-04-17 03:13:00,36.7,31.7,30.33,SSW,203,0.0,0.0,82,0.00,,,0.00,WUHU216HW,2013-04-17 10:13:00,
2013-04-17 03:18:00,36.5,31.5,30.33,SSW,203,0.0,0.4,82,0.00,,,0.00,WUHU216HW,2013-04-17 10:18:00,
2013-04-17 03:23:00,36.5,31.5,30.33,SSW,203,0.0,0.4,82,0.00,,,0.00,WUHU216HW,2013-04-17 10:23:00,
2013-04-17 03:28:00,36.5,31.5,30.33,SSW,203,0.0,0.4,82,0.00,,,0.00,WUHU216HW,2013-04-17 10:28:00,
2013-04-17 03:33:00,36.4,31.3,30.33,SSW,203,0.0,0.2,82,0.00,,,0.00,WUHU216HW,2013-04-17 10:33:00,
2013-04-17 03:38:00,36.4,31.3,30.33,SW,225,0.0,0.4,82,0.00,,,0.00,WUHU216HW,2013-04-17 10:38:00,
2013-04-17 03:43:00,36.4,31.3,30.33,SW,225,0.0,0.4,82,0.00,,,0.00,WUHU216HW,2013-04-17 10:43:00,
2013-04-17 03:48:00,36.4,31.3,30.33,SW,225,0.0,0.2,82,0.00,,,0.00,WUHU216HW,2013-04-17 10:48:00,
2013-04-17 03:53:00,36.4,31.7,30.33,SW,225,0.0,0.0,83,0.00,,,0.00,WUHU216HW,2013-04-17 10:53:00,
2013-04-17 03:58:00,36.4,31.7,30.33,SW,225,0.0,0.0,83,0.00,,,0.00,WUHU216HW,2013-04-17 10:58:00,
2013-04-17 04:03:00,36.2,31.5,30.33,SW,225,0.0,0.4,83,0.00,,,0.00,WUHU216HW,2013-04-17 11:03:00,
2013-04-17 04:08:00,36.2,31.5,30.33,SW,225,0.0,0.4,83,0.00,,,0.00,WUHU216HW,2013-04-17 11:08:00,
2013-04-17 04:14:00,36.0,31.3,30.33,SW,225,0.0,0.0,83,0.00,,,0.00,WUHU216HW,2013-04-17 11:14:00,
2013-04-17 04:19:00,35.8,31.2,30.33,SW,225,0.0,0.0,83,0.00,,,0.00,WUHU216HW,2013-04-17 11:19:00,
2013-04-17 04:24:00,35.8,31.2,30.33,SW,225,0.0,0.0,83,0.00,,,0.00,WUHU216HW,2013-04-17 11:24:00,
2013-04-17 04:29:00,35.8,31.2,30.33,SW,225,0.0,0.0,83,0.00,,,0.00,WUHU216HW,2013-04-17 11:29:00,
2013-04-17 04:34:00,35.8,31.2,30.33,SW,225,0.0,0.0,83,0.00,,,0.00,WUHU216HW,2013-04-17 11:34:00,
2013-04-17 04:39:00,35.6,31.2,30.33,SW,225,0.0,0.0,84,0.00,,,0.00,WUHU216HW,2013-04-17 11:39:00,
2013-04-17 04:44:00,35.6,31.2,30.33,SW,225,0.0,0.0,84,0.00,,,0.00,WUHU216HW,2013-04-17 11:44:00,
2013-04-17 04:49:00,35.8,31.4,30.33,SW,225,0.0,0.0,84,0.00,,,0.00,WUHU216HW,2013-04-17 11:49:00,
2013-04-17 04:54:00,35.6,31.2,30.33,SW,225,0.0,0.0,84,0.00,,,0.00,WUHU216HW,2013-04-17 11:54:00,
2013-04-17 04:59:00,35.6,31.2,30.33,SW,225,0.0,0.0,84,0.00,,,0.00,WUHU216HW,2013-04-17 11:59:00,
2013-04-17 05:04:00,35.8,31.4,30.33,SW,225,0.0,0.0,84,0.00,,,0.00,WUHU216HW,2013-04-17 12:04:00,
2013-04-17 05:09:00,35.6,31.2,30.33,WSW,248,0.0,0.0,84,0.00,,,0.00,WUHU216HW,2013-04-17 12:09:00,
2013-04-17 05:15:00,35.6,31.2,30.33,WSW,248,0.7,0.7,84,0.00,,,0.00,WUHU216HW,2013-04-17 12:15:00,
2013-04-17 05:20:00,35.6,31.2,30.33,WSW,248,0.0,0.7,84,0.00,,,0.00,WUHU216HW,2013-04-17 12:20:00,
2013-04-17 05:25:00,35.8,31.4,30.34,West,270,0.2,0.7,84,0.00,,,0.00,WUHU216HW,2013-04-17 12:25:00,
2013-04-17 05:30:00,35.8,31.4,30.34,WSW,248,0.0,0.7,84,0.00,,,0.00,WUHU216HW,2013-04-17 12:30:00,
2013-04-17 05:35:00,35.8,31.4,30.34,SSE,158,0.0,0.2,84,0.00,,,0.00,WUHU216HW,2013-04-17 12:35:00,
2013-04-17 05:40:00,35.8,31.4,30.34,SE,135,0.0,0.4,84,0.00,,,0.00,WUHU216HW,2013-04-17 12:40:00,
2013-04-17 05:45:00,35.6,31.2,30.34,South,180,0.0,1.1,84,0.00,,,0.00,WUHU216HW,2013-04-17 12:45:00,
2013-04-17 05:50:00,35.5,31.1,30.34,SE,135,0.9,1.8,84,0.00,,,0.00,WUHU216HW,2013-04-17 12:50:00,
2013-04-17 05:55:00,35.3,30.9,30.34,ESE,113,0.0,1.8,84,0.00,,,0.00,WUHU216HW,2013-04-17 12:55:00,
2013-04-17 06:00:00,35.1,30.7,30.35,NE,45,0.0,0.2,84,0.00,,,0.00,WUHU216HW,2013-04-17 13:00:00,
2013-04-17 06:05:00,34.9,30.5,30.35,NNE,23,0.0,0.0,84,0.00,,,0.00,WUHU216HW,2013-04-17 13:05:00,
2013-04-17 06:10:00,34.9,30.5,30.35,NNE,23,0.0,0.2,84,0.00,,,0.00,WUHU216HW,2013-04-17 13:10:00,
2013-04-17 06:15:00,34.7,30.3,30.35,ESE,113,0.0,0.2,84,0.00,,,0.00,WUHU216HW,2013-04-17 13:15:00,
2013-04-17 06:20:00,34.6,30.2,30.35,WSW,248,0.0,0.0,84,0.00,,,0.00,WUHU216HW,2013-04-17 13:20:00,
2013-04-17 06:26:00,34.4,30.0,30.35,WSW,248,0.0,0.0,84,0.00,,,0.00,WUHU216HW,2013-04-17 13:26:00,
2013-04-17 06:31:00,34.4,30.0,30.35,WSW,248,0.0,0.0,84,0.00,,,0.00,WUHU216HW,2013-04-17 13:31:00,
2013-04-17 06:36:00,34.2,29.8,30.35,WSW,248,0.0,0.0,84,0.00,,,0.00,WUHU216HW,2013-04-17 13:36:00,
2013-04-17 06:41:00,34.4,30.0,30.35,WSW,248,0.0,0.0,84,0.00,,,0.00,WUHU216HW,2013-04-17 13:41:00,
2013-04-17 06:46:00,34.6,30.4,30.35,WSW,248,0.0,0.0,85,0.00,,,0.00,WUHU216HW,2013-04-17 13:46:00,
2013-04-17 06:51:00,34.7,30.6,30.35,WSW,248,0.0,0.0,85,0.00,,,0.00,WUHU216HW,2013-04-17 13:51:00,
2013-04-17 06:56:00,34.9,30.5,30.35,WSW,248,0.0,0.0,84,0.00,,,0.00,WUHU216HW,2013-04-17 13:56:00,
2013-04-17 07:01:00,35.3,30.9,30.35,SW,225,0.0,0.0,84,0.00,,,0.00,WUHU216HW,2013-04-17 14:01:00,
2013-04-17 07:06:00,35.6,31.2,30.36,SW,225,0.0,0.0,84,0.00,,,0.00,WUHU216HW,2013-04-17 14:06:00,
2013-04-17 07:11:00,36.2,32.3,30.35,SW,225,0.0,0.0,86,0.00,,,0.00,WUHU216HW,2013-04-17 14:11:00,
2013-04-17 07:17:00,36.9,33.0,30.36,East,90,0.0,0.0,86,0.00,,,0.00,WUHU216HW,2013-04-17 14:17:00,
2013-04-17 07:22:00,37.4,33.6,30.36,NNE,23,0.0,0.4,86,0.00,,,0.00,WUHU216HW,2013-04-17 14:22:00,
2013-04-17 07:27:00,37.8,33.7,30.36,ENE,68,0.9,0.9,85,0.00,,,0.00,WUHU216HW,2013-04-17 14:27:00,
2013-04-17 07:32:00,38.2,34.0,30.36,East,90,0.0,0.9,85,0.00,,,0.00,WUHU216HW,2013-04-17 14:32:00,
2013-04-17 07:37:00,38.9,34.7,30.36,SSE,158,1.8,1.8,85,0.00,,,0.00,WUHU216HW,2013-04-17 14:37:00,
2013-04-17 07:42:00,39.8,35.7,30.36,ESE,113,0.0,1.8,85,0.00,,,0.00,WUHU216HW,2013-04-17 14:42:00,
2013-04-17 07:47:00,40.3,35.8,30.36,ENE,68,0.4,1.8,84,0.00,,,0.00,WUHU216HW,2013-04-17 14:47:00,
2013-04-17 07:52:00,41.0,36.6,30.36,SE,135,0.7,2.5,84,0.00,,,0.00,WUHU216HW,2013-04-17 14:52:00,
2013-04-17 07:57:00,41.6,36.7,30.37,SE,135,1.1,2.9,83,0.00,,,0.00,WUHU216HW,2013-04-17 14:57:00,
2013-04-17 08:02:00,42.1,37.6,30.36,SSW,203,2.0,3.8,84,0.00,,,0.00,WUHU216HW,2013-04-17 15:02:00,
2013-04-17 08:07:00,42.7,37.8,30.37,SE,135,1.8,3.8,83,0.00,,,0.00,WUHU216HW,2013-04-17 15:07:00,
2013-04-17 08:12:00,43.4,38.5,30.37,SE,135,0.7,2.0,83,0.00,,,0.00,WUHU216HW,2013-04-17 15:12:00,
2013-04-17 08:17:00,43.7,38.6,30.37,East,90,0.7,1.1,82,0.00,,,0.00,WUHU216HW,2013-04-17 15:17:00,
2013-04-17 08:22:00,44.3,38.8,30.37,ESE,113,0.0,1.1,81,0.00,,,0.00,WUHU216HW,2013-04-17 15:22:00,
2013-04-17 08:27:00,45.4,40.2,30.37,SSE,158,0.2,0.7,82,0.00,,,0.00,WUHU216HW,2013-04-17 15:27:00,
2013-04-17 08:32:00,46.6,41.1,30.37,SE,135,0.0,1.1,81,0.00,,,0.00,WUHU216HW,2013-04-17 15:32:00,
2013-04-17 08:38:00,47.5,41.7,30.37,ENE,68,0.7,1.1,80,0.00,,,0.00,WUHU216HW,2013-04-17 15:38:00,
2013-04-17 08:43:00,48.1,41.8,30.38,SE,135,0.4,1.3,79,0.00,,,0.00,WUHU216HW,2013-04-17 15:43:00,
2013-04-17 08:48:00,48.4,41.8,30.38,SSE,158,0.4,1.3,78,0.00,,,0.00,WUHU216HW,2013-04-17 15:48:00,
2013-04-17 08:53:00,48.8,42.1,30.38,SE,135,0.7,1.1,78,0.00,,,0.00,WUHU216HW,2013-04-17 15:53:00,
2013-04-17 08:58:00,49.9,43.2,30.38,SSE,158,1.1,1.1,78,0.00,,,0.00,WUHU216HW,2013-04-17 15:58:00,
2013-04-17 09:03:00,51.1,44.2,30.38,South,180,0.0,1.8,77,0.00,,,0.00,WUHU216HW,2013-04-17 16:03:00,
2013-04-17 09:08:00,52.2,44.6,30.38,SSW,203,0.7,2.0,75,0.00,,,0.00,WUHU216HW,2013-04-17 16:08:00,
2013-04-17 09:13:00,52.9,44.6,30.38,South,180,2.2,2.5,73,0.00,,,0.00,WUHU216HW,2013-04-17 16:13:00,
2013-04-17 09:18:00,52.9,44.2,30.38,South,180,3.4,3.4,72,0.00,,,0.00,WUHU216HW,2013-04-17 16:18:00,
2013-04-17 09:23:00,53.5,44.6,30.38,East,90,1.1,3.4,72,0.00,,,0.00,WUHU216HW,2013-04-17 16:23:00,
2013-04-17 09:28:00,54.0,44.8,30.38,ENE,68,1.6,2.0,71,0.00,,,0.00,WUHU216HW,2013-04-17 16:28:00,
2013-04-17 09:33:00,54.5,45.0,30.38,SSE,158,0.4,1.8,70,0.00,,,0.00,WUHU216HW,2013-04-17 16:33:00,
2013-04-17 09:38:00,55.3,45.3,30.38,SE,135,2.7,4.3,69,0.00,,,0.00,WUHU216HW,2013-04-17 16:38:00,
2013-04-17 09:43:00,55.8,45.8,30.38,ESE,113,1.6,4.3,69,0.00,,,0.00,WUHU216HW,2013-04-17 16:43:00,
2013-04-17 09:48:00,56.3,45.9,30.38,SSE,158,1.8,2.9,68,0.00,,,0.00,WUHU216HW,2013-04-17 16:48:00,
2013-04-17 09:54:00,56.9,46.0,30.38,SSE,158,1.8,4.0,67,0.00,,,0.00,WUHU216HW,2013-04-17 16:54:00,
2013-04-17 09:59:00,57.2,45.9,30.38,SSE,158,2.2,4.7,66,0.00,,,0.00,WUHU216HW,2013-04-17 16:59:00,
2013-04-17 10:04:00,57.8,46.4,30.38,East,90,1.6,4.9,66,0.00,,,0.00,WUHU216HW,2013-04-17 17:04:00,
2013-04-17 10:09:00,58.0,46.3,30.38,SE,135,2.7,4.9,65,0.00,,,0.00,WUHU216HW,2013-04-17 17:09:00,
2013-04-17 10:14:00,58.1,46.4,30.38,SSE,158,2.2,6.3,65,0.00,,,0.00,WUHU216HW,2013-04-17 17:14:00,
2013-04-17 10:19:00,58.3,46.2,30.38,East,90,2.2,6.3,64,0.00,,,0.00,WUHU216HW,2013-04-17 17:19:00,
2013-04-17 10:24:00,58.1,46.0,30.38,South,180,0.9,4.7,64,0.00,,,0.00,WUHU216HW,2013-04-17 17:24:00,
2013-04-17 10:29:00,58.7,46.1,30.38,SSE,158,2.2,5.8,63,0.00,,,0.00,WUHU216HW,2013-04-17 17:29:00,
2013-04-17 10:34:00,59.2,46.6,30.38,ESE,113,1.3,5.8,63,0.00,,,0.00,WUHU216HW,2013-04-17 17:34:00,
2013-04-17 10:39:00,59.6,46.5,30.38,South,180,4.0,6.0,62,0.00,,,0.00,WUHU216HW,2013-04-17 17:39:00,
2013-04-17 10:44:00,59.6,46.5,30.38,SSE,158,1.8,6.0,62,0.00,,,0.00,WUHU216HW,2013-04-17 17:44:00,
2013-04-17 10:49:00,59.8,46.7,30.37,SE,135,3.1,6.3,62,0.00,,,0.00,WUHU216HW,2013-04-17 17:49:00,
2013-04-17 10:54:00,60.1,46.7,30.38,SE,135,2.5,6.3,61,0.00,,,0.00,WUHU216HW,2013-04-17 17:54:00,
2013-04-17 11:00:00,60.3,46.9,30.38,SSE,158,4.3,7.4,61,0.00,,,0.00,WUHU216HW,2013-04-17 18:00:00,
2013-04-17 11:05:00,60.5,46.6,30.38,SSW,203,5.4,7.4,60,0.00,,,0.00,WUHU216HW,2013-04-17 18:05:00,
2013-04-17 11:10:00,60.5,46.6,30.38,SE,135,1.1,5.4,60,0.00,,,0.00,WUHU216HW,2013-04-17 18:10:00,
2013-04-17 11:15:00,60.8,47.0,30.38,South,180,2.2,3.8,60,0.00,,,0.00,WUHU216HW,2013-04-17 18:15:00,
2013-04-17 11:20:00,61.4,47.4,30.38,SSE,158,4.0,4.0,60,0.00,,,0.00,WUHU216HW,2013-04-17 18:20:00,
2013-04-17 11:25:00,61.6,46.6,30.38,NNE,23,1.1,6.0,58,0.00,,,0.00,WUHU216HW,2013-04-17 18:25:00,
2013-04-17 11:30:00,61.7,46.8,30.37,ESE,113,1.8,6.0,58,0.00,,,0.00,WUHU216HW,2013-04-17 18:30:00,
2013-04-17 11:35:00,61.9,46.5,30.38,South,180,4.0,5.4,57,0.00,,,0.00,WUHU216HW,2013-04-17 18:35:00,
2013-04-17 11:40:00,61.7,45.8,30.38,SSE,158,2.7,5.4,56,0.00,,,0.00,WUHU216HW,2013-04-17 18:40:00,
2013-04-17 11:45:00,61.9,46.5,30.38,South,180,1.8,4.3,57,0.00,,,0.00,WUHU216HW,2013-04-17 18:45:00,
2013-04-17 11:50:00,62.1,46.2,30.38,WSW,248,0.4,4.3,56,0.00,,,0.00,WUHU216HW,2013-04-17 18:50:00,
2013-04-17 11:55:00,62.1,46.2,30.38,SE,135,1.1,3.6,56,0.00,,,0.00,WUHU216HW,2013-04-17 18:55:00,
2013-04-17 12:00:00,62.5,46.0,30.38,NNW,338,4.0,4.7,55,0.00,,,0.00,WUHU216HW,2013-04-17 19:00:00,
2013-04-17 12:05:00,62.5,46.0,30.38,South,180,4.0,6.3,55,0.00,,,0.00,WUHU216HW,2013-04-17 19:05:00,
2013-04-17 12:11:00,62.5,45.6,30.38,NW,315,1.6,6.3,54,0.00,,,0.00,WUHU216HW,2013-04-17 19:11:00,
2013-04-17 12:16:00,62.5,45.6,30.38,WNW,293,1.1,4.5,54,0.00,,,0.00,WUHU216HW,2013-04-17 19:16:00,
2013-04-17 12:21:00,62.6,45.2,30.38,ESE,113,5.6,6.0,53,0.00,,,0.00,WUHU216HW,2013-04-17 19:21:00,
2013-04-17 12:26:00,63.0,46.0,30.38,SSE,158,3.4,6.0,54,0.00,,,0.00,WUHU216HW,2013-04-17 19:26:00,
2013-04-17 12:31:00,63.0,45.6,30.38,North,0,2.7,7.2,53,0.00,,,0.00,WUHU216HW,2013-04-17 19:31:00,
2013-04-17 12:36:00,62.8,45.4,30.37,WSW,248,3.8,7.2,53,0.00,,,0.00,WUHU216HW,2013-04-17 19:36:00,
2013-04-17 12:41:00,62.6,44.7,30.37,SSW,203,0.9,5.6,52,0.00,,,0.00,WUHU216HW,2013-04-17 19:41:00,
2013-04-17 12:46:00,62.6,44.7,30.38,South,180,3.1,7.6,52,0.00,,,0.00,WUHU216HW,2013-04-17 19:46:00,
2013-04-17 12:51:00,62.5,44.1,30.37,SSW,203,0.4,7.6,51,0.00,,,0.00,WUHU216HW,2013-04-17 19:51:00,
2013-04-17 12:56:00,62.3,43.9,30.38,WNW,293,0.4,3.6,51,0.00,,,0.00,WUHU216HW,2013-04-17 19:56:00,
2013-04-17 13:02:00,62.5,43.6,30.38,SSE,158,6.7,6.7,50,0.00,,,0.00,WUHU216HW,2013-04-17 20:02:00,
2013-04-17 13:07:00,62.5,43.6,30.37,ESE,113,1.1,6.7,50,0.00,,,0.00,WUHU216HW,2013-04-17 20:07:00,
2013-04-17 13:12:00,62.6,43.2,30.37,SSE,158,0.9,6.7,49,0.00,,,0.00,WUHU216HW,2013-04-17 20:12:00,
2013-04-17 13:17:00,62.3,43.4,30.37,West,270,3.4,6.0,50,0.00,,,0.00,WUHU216HW,2013-04-17 20:17:00,
2013-04-17 13:22:00,62.3,42.8,30.37,South,180,1.6,6.0,49,0.00,,,0.00,WUHU216HW,2013-04-17 20:22:00,
2013-04-17 13:27:00,62.5,43.0,30.37,SSW,203,3.6,4.7,49,0.00,,,0.00,WUHU216HW,2013-04-17 20:27:00,
2013-04-17 13:32:00,62.6,43.2,30.37,SSE,158,6.7,6.7,49,0.00,,,0.00,WUHU216HW,2013-04-17 20:32:00,
2013-04-17 13:37:00,62.6,43.2,30.36,SW,225,2.9,6.7,49,0.00,,,0.00,WUHU216HW,2013-04-17 20:37:00,
2013-04-17 13:42:00,62.6,42.6,30.36,SSE,158,4.0,5.4,48,0.00,,,0.00,WUHU216HW,2013-04-17 20:42:00,
2013-04-17 13:47:00,62.8,42.2,30.36,SSE,158,3.1,8.5,47,0.00,,,0.00,WUHU216HW,2013-04-17 20:47:00,
2013-04-17 13:52:00,63.0,42.3,30.36,SSE,158,1.6,8.5,47,0.00,,,0.00,WUHU216HW,2013-04-17 20:52:00,
2013-04-17 13:58:00,63.0,42.3,30.36,SW,225,1.8,3.4,47,0.00,,,0.00,WUHU216HW,2013-04-17 20:58:00,
2013-04-17 14:03:00,63.0,41.8,30.36,WSW,248,2.7,5.4,46,0.00,,,0.00,WUHU216HW,2013-04-17 21:03:00,
2013-04-17 14:08:00,62.8,41.6,30.35,NW,315,0.4,5.4,46,0.00,,,0.00,WUHU216HW,2013-04-17 21:08:00,
2013-04-17 14:13:00,63.0,41.8,30.35,WNW,293,0.2,2.2,46,0.00,,,0.00,WUHU216HW,2013-04-17 21:13:00,
2013-04-17 14:18:00,63.2,42.0,30.35,SW,225,1.3,4.9,46,0.00,,,0.00,WUHU216HW,2013-04-17 21:18:00,
2013-04-17 14:23:00,63.5,42.2,30.35,WSW,248,4.0,4.9,46,0.00,,,0.00,WUHU216HW,2013-04-17 21:23:00,
2013-04-17 14:28:00,63.5,42.2,30.35,South,180,7.6,7.6,46,0.00,,,0.00,WUHU216HW,2013-04-17 21:28:00,
2013-04-17 14:33:00,63.4,41.0,30.35,WSW,248,3.4,7.6,44,0.00,,,0.00,WUHU216HW,2013-04-17 21:33:00,
2013-04-17 14:38:00,63.5,41.7,30.35,NW,315,0.4,7.2,45,0.00,,,0.00,WUHU216HW,2013-04-17 21:38:00,
2013-04-17 14:43:00,63.5,41.7,30.35,SSE,158,2.5,7.2,45,0.00,,,0.00,WUHU216HW,2013-04-17 21:43:00,
2013-04-17 14:48:00,63.7,41.9,30.35,SW,225,2.0,6.0,45,0.00,,,0.00,WUHU216HW,2013-04-17 21:48:00,
2013-04-17 14:53:00,63.7,41.2,30.35,East,90,2.2,6.0,44,0.00,,,0.00,WUHU216HW,2013-04-17 21:53:00,
2013-04-17 14:58:00,63.7,40.7,30.35,ENE,68,3.1,4.0,43,0.00,,,0.00,WUHU216HW,2013-04-17 21:58:00,
2013-04-17 15:04:00,63.7,40.7,30.35,West,270,2.2,4.0,43,0.00,,,0.00,WUHU216HW,2013-04-17 22:04:00,
2013-04-17 15:09:00,63.7,41.2,30.35,SW,225,2.7,6.9,44,0.00,,,0.00,WUHU216HW,2013-04-17 22:09:00,
2013-04-17 15:14:00,63.5,40.0,30.35,SW,225,2.7,6.9,42,0.00,,,0.00,WUHU216HW,2013-04-17 22:14:00,
2013-04-17 15:19:00,63.5,40.5,30.35,SSE,158,0.2,4.9,43,0.00,,,0.00,WUHU216HW,2013-04-17 22:19:00,
2013-04-17 15:24:00,63.5,39.3,30.35,WNW,293,2.5,4.9,41,0.00,,,0.00,WUHU216HW,2013-04-17 22:24:00,
2013-04-17 15:29:00,63.7,40.2,30.35,ESE,113,1.1,4.5,42,0.00,,,0.00,WUHU216HW,2013-04-17 22:29:00,
2013-04-17 15:34:00,63.4,38.6,30.35,WNW,293,3.1,4.3,40,0.00,,,0.00,WUHU216HW,2013-04-17 22:34:00,
2013-04-17 15:39:00,63.0,38.4,30.34,SW,225,1.1,4.3,40,0.00,,,0.00,WUHU216HW,2013-04-17 22:39:00,
2013-04-17 15:44:00,63.2,39.1,30.34,NW,315,1.1,3.4,41,0.00,,,0.00,WUHU216HW,2013-04-17 22:44:00,
2013-04-17 15:49:00,63.2,39.1,30.34,SSE,158,2.9,5.4,41,0.00,,,0.00,WUHU216HW,2013-04-17 22:49:00,
2013-04-17 15:54:00,63.0,38.9,30.34,South,180,5.4,7.6,41,0.00,,,0.00,WUHU216HW,2013-04-17 22:54:00,
2013-04-17 15:59:00,62.8,38.7,30.34,South,180,1.6,7.6,41,0.00,,,0.00,WUHU216HW,2013-04-17 22:59:00,
2013-04-17 16:04:00,62.8,39.3,30.34,South,180,2.0,5.6,42,0.00,,,0.00,WUHU216HW,2013-04-17 23:04:00,
2013-04-17 16:10:00,62.8,39.3,30.34,WNW,293,2.5,5.6,42,0.00,,,0.00,WUHU216HW,2013-04-17 23:10:00,
2013-04-17 16:15:00,62.8,38.7,30.34,West,270,3.4,5.6,41,0.00,,,0.00,WUHU216HW,2013-04-17 23:15:00,
2013-04-17 16:20:00,62.6,38.5,30.34,South,180,0.4,5.6,41,0.00,,,0.00,WUHU216HW,2013-04-17 23:20:00,
2013-04-17 16:25:00,62.8,39.3,30.34,SE,135,4.7,4.7,42,0.00,,,0.00,WUHU216HW,2013-04-17 23:25:00,
2013-04-17 16:30:00,63.0,38.9,30.34,ESE,113,1.6,4.7,41,0.00,,,0.00,WUHU216HW,2013-04-17 23:30:00,
2013-04-17 16:35:00,62.8,38.7,30.34,SE,135,4.7,4.7,41,0.00,,,0.00,WUHU216HW,2013-04-17 23:35:00,
2013-04-17 16:40:00,62.6,38.5,30.34,WSW,248,2.7,4.7,41,0.00,,,0.00,WUHU216HW,2013-04-17 23:40:00,
2013-04-17 16:45:00,62.3,38.3,30.34,South,180,1.8,4.7,41,0.00,,,0.00,WUHU216HW,2013-04-17 23:45:00,
2013-04-17 16:50:00,62.3,38.3,30.34,NNW,338,1.1,4.0,41,0.00,,,0.00,WUHU216HW,2013-04-17 23:50:00,
2013-04-17 16:55:00,62.1,38.1,30.34,NW,315,2.0,4.0,41,0.00,,,0.00,WUHU216HW,2013-04-17 23:55:00,
2013-04-17 17:00:00,61.9,37.9,30.34,East,90,0.7,3.4,41,0.00,,,0.00,WUHU216HW,2013-04-18 00:00:00,
2013-04-17 17:05:00,61.9,38.5,30.34,SW,225,0.9,3.4,42,0.00,,,0.00,WUHU216HW,2013-04-18 00:05:00,
2013-04-17 17:10:00,61.7,37.7,30.34,West,270,1.1,2.9,41,0.00,,,0.00,WUHU216HW,2013-04-18 00:10:00,
2013-04-17 17:15:00,61.4,38.0,30.34,SSE,158,0.2,2.9,42,0.00,,,0.00,WUHU216HW,2013-04-18 00:15:00,
2013-04-17 17:20:00,61.2,38.4,30.34,South,180,1.8,3.4,43,0.00,,,0.00,WUHU216HW,2013-04-18 00:20:00,
2013-04-17 17:25:00,61.2,38.4,30.34,NNW,338,1.1,3.6,43,0.00,,,0.00,WUHU216HW,2013-04-18 00:25:00,
2013-04-17 17:30:00,60.8,38.7,30.34,NW,315,2.2,3.6,44,0.00,,,0.00,WUHU216HW,2013-04-18 00:30:00,
2013-04-17 17:35:00,60.7,38.5,30.34,West,270,1.3,3.1,44,0.00,,,0.00,WUHU216HW,2013-04-18 00:35:00,
2013-04-17 17:40:00,60.5,38.9,30.34,North,0,0.0,3.1,45,0.00,,,0.00,WUHU216HW,2013-04-18 00:40:00,
2013-04-17 17:46:00,60.1,39.2,30.34,NNE,23,0.0,2.7,46,0.00,,,0.00,WUHU216HW,2013-04-18 00:46:00,
2013-04-17 17:51:00,60.1,39.8,30.34,SSW,203,1.1,1.1,47,0.00,,,0.00,WUHU216HW,2013-04-18 00:51:00,
2013-04-17 17:56:00,60.1,39.8,30.34,WSW,248,0.0,2.0,47,0.00,,,0.00,WUHU216HW,2013-04-18 00:56:00,
2013-04-17 18:01:00,59.9,39.6,30.34,WNW,293,4.0,4.0,47,0.00,,,0.00,WUHU216HW,2013-04-18 01:01:00,
2013-04-17 18:06:00,59.6,39.9,30.34,WSW,248,0.9,4.0,48,0.00,,,0.00,WUHU216HW,2013-04-18 01:06:00,
2013-04-17 18:11:00,59.4,39.7,30.34,WNW,293,0.4,4.0,48,0.00,,,0.00,WUHU216HW,2013-04-18 01:11:00,
2013-04-17 18:16:00,59.4,40.2,30.34,NNE,23,0.0,1.1,49,0.00,,,0.00,WUHU216HW,2013-04-18 01:16:00,
2013-04-17 18:21:00,59.2,40.1,30.34,SW,225,0.4,2.5,49,0.00,,,0.00,WUHU216HW,2013-04-18 01:21:00,
2013-04-17 18:27:00,59.0,40.0,30.34,SE,135,3.8,4.7,49,0.00,,,0.00,WUHU216HW,2013-04-18 01:27:00,
2013-04-17 18:32:00,58.9,40.3,30.35,WSW,248,0.2,5.4,50,0.00,,,0.00,WUHU216HW,2013-04-18 01:32:00,
2013-04-17 18:37:00,58.7,40.7,30.35,WNW,293,0.2,5.4,51,0.00,,,0.00,WUHU216HW,2013-04-18 01:37:00,
2013-04-17 18:42:00,58.5,40.5,30.35,North,0,0.9,4.7,51,0.00,,,0.00,WUHU216HW,2013-04-18 01:42:00,
2013-04-17 18:47:00,58.1,40.6,30.35,WSW,248,0.0,1.6,52,0.00,,,0.00,WUHU216HW,2013-04-18 01:47:00,
2013-04-17 18:52:00,58.0,40.5,30.35,North,0,1.8,1.8,52,0.00,,,0.00,WUHU216HW,2013-04-18 01:52:00,
2013-04-17 18:57:00,57.6,40.1,30.35,NW,315,2.0,3.4,52,0.00,,,0.00,WUHU216HW,2013-04-18 01:57:00,
2013-04-17 19:02:00,57.2,40.3,30.35,WNW,293,0.7,3.4,53,0.00,,,0.00,WUHU216HW,2013-04-18 02:02:00,
2013-04-17 19:07:00,56.9,40.4,30.35,NE,45,1.8,2.5,54,0.00,,,0.00,WUHU216HW,2013-04-18 02:07:00,
2013-04-17 19:12:00,56.5,40.1,30.35,North,0,0.4,2.5,54,0.00,,,0.00,WUHU216HW,2013-04-18 02:12:00,
2013-04-17 19:17:00,56.0,39.5,30.35,NW,315,1.8,1.8,54,0.00,,,0.00,WUHU216HW,2013-04-18 02:17:00,
2013-04-17 19:22:00,55.4,39.9,30.35,NNW,338,0.2,1.8,56,0.00,,,0.00,WUHU216HW,2013-04-18 02:22:00,
2013-04-17 19:27:00,54.7,39.2,30.36,North,0,0.0,3.6,56,0.00,,,0.00,WUHU216HW,2013-04-18 02:27:00,
2013-04-17 19:33:00,54.4,38.9,30.36,West,270,1.6,4.0,56,0.00,,,0.00,WUHU216HW,2013-04-18 02:33:00,
2013-04-17 19:38:00,54.0,39.1,30.36,North,0,0.4,4.0,57,0.00,,,0.00,WUHU216HW,2013-04-18 02:38:00,
2013-04-17 19:43:00,53.5,39.1,30.36,North,0,0.0,2.0,58,0.00,,,0.00,WUHU216HW,2013-04-18 02:43:00,
2013-04-17 19:48:00,52.9,39.0,30.36,NNW,338,0.7,1.3,59,0.00,,,0.00,WUHU216HW,2013-04-18 02:48:00,
2013-04-17 19:53:00,52.7,39.6,30.37,North,0,1.1,3.4,61,0.00,,,0.00,WUHU216HW,2013-04-18 02:53:00,
2013-04-17 19:58:00,52.2,38.7,30.37,NNE,23,0.9,3.4,60,0.00,,,0.00,WUHU216HW,2013-04-18 02:58:00,
2013-04-17 20:03:00,51.8,39.2,30.37,NNE,23,0.2,1.8,62,0.00,,,0.00,WUHU216HW,2013-04-18 03:03:00,
2013-04-17 20:08:00,51.7,38.6,30.37,North,0,0.9,1.8,61,0.00,,,0.00,WUHU216HW,2013-04-18 03:08:00,
2013-04-17 20:13:00,51.3,39.1,30.37,North,0,0.4,3.8,63,0.00,,,0.00,WUHU216HW,2013-04-18 03:13:00,
2013-04-17 20:18:00,50.9,38.7,30.37,NNE,23,1.8,3.8,63,0.00,,,0.00,WUHU216HW,2013-04-18 03:18:00,
2013-04-17 20:23:00,50.6,38.8,30.37,North,0,1.1,4.3,64,0.00,,,0.00,WUHU216HW,2013-04-18 03:23:00,
2013-04-17 20:28:00,50.4,38.6,30.37,North,0,1.1,4.3,64,0.00,,,0.00,WUHU216HW,2013-04-18 03:28:00,
2013-04-17 20:33:00,50.2,38.4,30.38,North,0,0.7,4.0,64,0.00,,,0.00,WUHU216HW,2013-04-18 03:33:00,
2013-04-17 20:38:00,50.0,38.4,30.38,North,0,0.4,1.8,64,0.00,,,0.00,WUHU216HW,2013-04-18 03:38:00,
2013-04-17 20:44:00,50.0,38.4,30.38,East,90,1.1,3.4,64,0.00,,,0.00,WUHU216HW,2013-04-18 03:44:00,
2013-04-17 20:49:00,49.9,38.2,30.38,North,0,0.2,3.4,64,0.00,,,0.00,WUHU216HW,2013-04-18 03:49:00,
2013-04-17 20:54:00,49.9,38.5,30.38,NNE,23,1.1,1.1,65,0.00,,,0.00,WUHU216HW,2013-04-18 03:54:00,
2013-04-17 20:59:00,49.5,39.0,30.38,North,0,1.1,2.9,67,0.00,,,0.00,WUHU216HW,2013-04-18 03:59:00,
2013-04-17 21:01:00,49.3,38.8,30.38,NNW,338,0.2,2.9,67,0.00,,,0.00,WUHU216HW,2013-04-18 04:01:00,
2013-04-17 21:02:00,49.3,38.8,30.38,NNE,23,0.2,2.9,67,0.00,,,0.00,WUHU216HW,2013-04-18 04:02:00,
2013-04-17 21:07:00,49.3,38.8,30.38,North,0,0.2,2.5,67,0.00,,,0.00,WUHU216HW,2013-04-18 04:07:00,
2013-04-17 21:12:00,49.1,39.0,30.38,North,0,0.4,2.5,68,0.00,,,0.00,WUHU216HW,2013-04-18 04:12:00,
2013-04-17 21:17:00,49.1,39.0,30.38,NE,45,0.7,1.8,68,0.00,,,0.00,WUHU216HW,2013-04-18 04:17:00,
2013-04-17 21:22:00,49.0,38.8,30.38,North,0,0.4,1.3,68,0.00,,,0.00,WUHU216HW,2013-04-18 04:22:00,
2013-04-17 21:27:00,48.8,38.6,30.38,WNW,293,0.7,3.1,68,0.00,,,0.00,WUHU216HW,2013-04-18 04:27:00,
2013-04-17 21:32:00,48.6,38.9,30.38,North,0,0.4,3.1,69,0.00,,,0.00,WUHU216HW,2013-04-18 04:32:00,
2013-04-17 21:37:00,48.6,38.9,30.38,North,0,0.7,1.1,69,0.00,,,0.00,WUHU216HW,2013-04-18 04:37:00,
2013-04-17 21:42:00,48.2,39.3,30.38,North,0,0.7,2.2,71,0.00,,,0.00,WUHU216HW,2013-04-18 04:42:00,
2013-04-17 21:48:00,48.2,39.3,30.38,North,0,1.8,2.2,71,0.00,,,0.00,WUHU216HW,2013-04-18 04:48:00,
2013-04-17 21:53:00,48.1,39.1,30.39,NE,45,0.4,1.8,71,0.00,,,0.00,WUHU216HW,2013-04-18 04:53:00,
2013-04-17 21:58:00,48.1,39.1,30.38,NNE,23,0.2,2.0,71,0.00,,,0.00,WUHU216HW,2013-04-18 04:58:00,
2013-04-17 22:03:00,48.1,39.1,30.38,NW,315,0.7,2.0,71,0.00,,,0.00,WUHU216HW,2013-04-18 05:03:00,
2013-04-17 22:08:00,47.9,38.9,30.38,North,0,0.0,0.9,71,0.00,,,0.00,WUHU216HW,2013-04-18 05:08:00,
2013-04-17 22:13:00,47.9,38.9,30.38,NNW,338,0.4,0.9,71,0.00,,,0.00,WUHU216HW,2013-04-18 05:13:00,
2013-04-17 22:18:00,47.9,38.9,30.38,WNW,293,0.0,0.7,71,0.00,,,0.00,WUHU216HW,2013-04-18 05:18:00,
2013-04-17 22:23:00,48.1,39.1,30.38,NNW,338,0.0,0.7,71,0.00,,,0.00,WUHU216HW,2013-04-18 05:23:00,
2013-04-17 22:28:00,48.1,39.1,30.38,NW,315,0.0,0.2,71,0.00,,,0.00,WUHU216HW,2013-04-18 05:28:00,
2013-04-17 22:33:00,48.2,39.3,30.38,NNW,338,0.4,0.4,71,0.00,,,0.00,WUHU216HW,2013-04-18 05:33:00,
2013-04-17 22:38:00,48.2,39.3,30.38,North,0,0.2,0.7,71,0.00,,,0.00,WUHU216HW,2013-04-18 05:38:00,
2013-04-17 22:43:00,48.1,39.1,30.38,NNE,23,0.4,2.0,71,0.00,,,0.00,WUHU216HW,2013-04-18 05:43:00,
2013-04-17 22:48:00,47.9,38.9,30.38,NNE,23,0.0,2.0,71,0.00,,,0.00,WUHU216HW,2013-04-18 05:48:00,
2013-04-17 22:54:00,47.9,38.9,30.38,WNW,293,0.4,0.4,71,0.00,,,0.00,WUHU216HW,2013-04-18 05:54:00,
2013-04-17 22:59:00,47.9,38.9,30.38,NW,315,0.0,0.4,71,0.00,,,0.00,WUHU216HW,2013-04-18 05:59:00,
2013-04-17 23:04:00,48.1,39.1,30.38,West,270,0.0,1.1,71,0.00,,,0.00,WUHU216HW,2013-04-18 06:04:00,
2013-04-17 23:09:00,48.1,39.1,30.38,West,270,0.0,1.1,71,0.00,,,0.00,WUHU216HW,2013-04-18 06:09:00,
2013-04-17 23:14:00,48.1,39.1,30.38,SSW,203,0.0,0.4,71,0.00,,,0.00,WUHU216HW,2013-04-18 06:14:00,
2013-04-17 23:19:00,48.1,39.1,30.38,WSW,248,0.0,0.4,71,0.00,,,0.00,WUHU216HW,2013-04-18 06:19:00,
2013-04-17 23:24:00,48.1,39.1,30.38,NNE,23,0.0,0.4,71,0.00,,,0.00,WUHU216HW,2013-04-18 06:24:00,
2013-04-17 23:29:00,48.1,39.1,30.38,NNE,23,0.0,0.4,71,0.00,,,0.00,WUHU216HW,2013-04-18 06:29:00,
2013-04-17 23:34:00,48.1,39.1,30.38,NE,45,0.0,0.4,71,0.00,,,0.00,WUHU216HW,2013-04-18 06:34:00,
2013-04-17 23:39:00,48.1,39.1,30.38,NE,45,0.0,0.4,71,0.00,,,0.00,WUHU216HW,2013-04-18 06:39:00,
2013-04-17 23:44:00,48.1,39.4,30.38,SE,135,0.4,0.7,72,0.00,,,0.00,WUHU216HW,2013-04-18 06:44:00,
2013-04-17 23:49:00,48.1,39.4,30.38,SE,135,0.0,0.7,72,0.00,,,0.00,WUHU216HW,2013-04-18 06:49:00,
2013-04-17 23:54:00,48.1,39.4,30.38,SSE,158,0.0,0.4,72,0.00,,,0.00,WUHU216HW,2013-04-18 06:54:00,
2013-04-17 23:59:00,48.1,39.4,30.38,SSE,158,0.4,0.7,72,0.00,,,0.00,WUHU216HW,2013-04-18 06:59:00,